createdAt,value
2019-05-26T00:02:06.305Z,15.40
2019-05-26T00:05:10.284Z,15.40
2019-05-26T00:08:13.223Z,15.40
2019-05-26T00:11:16.564Z,15.30
2019-05-26T00:14:19.784Z,15.40
2019-05-26T00:17:23.063Z,15.40
2019-05-26T00:20:26.379Z,15.40
2019-05-26T00:23:29.388Z,15.40
2019-05-26T00:26:33.255Z,15.20
2019-05-26T00:29:36.168Z,15.30
2019-05-26T00:32:39.123Z,15.20
2019-05-26T00:35:42.476Z,15.20
2019-05-26T00:38:45.408Z,15.20
2019-05-26T00:41:48.495Z,15.20
2019-05-26T00:44:51.784Z,15.20
2019-05-26T00:47:55.220Z,15.20
2019-05-26T00:50:58.981Z,15.20
2019-05-26T00:54:01.917Z,15.20
2019-05-26T00:57:05.724Z,15.20
2019-05-26T01:00:12.084Z,15.20
2019-05-26T01:03:15.104Z,15.20
2019-05-26T01:06:18.016Z,15.20
2019-05-26T01:09:21.651Z,15.20
2019-05-26T01:12:24.592Z,15.20
2019-05-26T01:15:27.838Z,15.20
2019-05-26T01:18:31.024Z,15.20
2019-05-26T01:21:34.308Z,15.20
2019-05-26T01:24:37.539Z,15.20
2019-05-26T01:27:40.476Z,15.10
2019-05-26T01:30:44.119Z,15.20
2019-05-26T01:33:47.344Z,15.10
2019-05-26T01:36:50.691Z,15.10
2019-05-26T01:39:53.744Z,15.10
2019-05-26T01:42:56.684Z,15.10
2019-05-26T01:45:59.620Z,15.00
2019-05-26T01:49:02.552Z,14.90
2019-05-26T01:52:05.477Z,14.70
2019-05-26T01:55:09.054Z,14.50
2019-05-26T01:58:12.478Z,14.60
2019-05-26T02:01:15.422Z,14.60
2019-05-26T02:04:18.781Z,14.50
2019-05-26T02:07:21.963Z,14.70
2019-05-26T02:10:26.240Z,14.80
2019-05-26T02:13:29.491Z,14.90
2019-05-26T02:16:32.438Z,14.90
2019-05-26T02:19:36.035Z,14.90
2019-05-26T02:22:38.937Z,14.90
2019-05-26T02:25:42.201Z,15.00
2019-05-26T02:28:45.114Z,14.90
2019-05-26T02:31:48.793Z,14.80
2019-05-26T02:34:52.406Z,14.90
2019-05-26T02:37:55.331Z,14.80
2019-05-26T02:40:58.384Z,14.80
2019-05-26T02:44:01.381Z,14.70
2019-05-26T02:47:04.407Z,14.80
2019-05-26T02:50:07.555Z,14.90
2019-05-26T02:53:10.457Z,14.80
2019-05-26T02:56:13.585Z,14.80
2019-05-26T02:59:16.797Z,14.80
2019-05-26T03:02:19.824Z,14.80
2019-05-26T03:05:22.769Z,14.90
2019-05-26T03:08:26.680Z,14.80
2019-05-26T03:11:33.238Z,14.80
2019-05-26T03:14:41.297Z,14.70
2019-05-26T03:17:48.345Z,14.70
2019-05-26T03:20:55.862Z,14.80
2019-05-26T03:24:03.269Z,14.80
2019-05-26T03:27:06.206Z,14.80
2019-05-26T03:30:10.121Z,15.00
2019-05-26T03:33:13.382Z,15.20
2019-05-26T03:36:16.622Z,15.20
2019-05-26T03:39:19.980Z,15.40
2019-05-26T03:42:23.298Z,15.20
2019-05-26T03:46:04.818Z,15.10
2019-05-26T03:49:07.721Z,14.90
2019-05-26T03:52:11.031Z,14.80
2019-05-26T03:55:13.985Z,14.90
2019-05-26T03:58:16.920Z,15.00
2019-05-26T04:01:20.132Z,15.10
2019-05-26T04:04:23.413Z,15.20
2019-05-26T04:07:26.338Z,15.20
2019-05-26T04:10:29.285Z,15.10
2019-05-26T04:13:32.536Z,15.20
2019-05-26T04:16:35.457Z,15.20
2019-05-26T04:19:38.380Z,15.20
2019-05-26T04:22:41.677Z,14.90
2019-05-26T04:25:44.587Z,14.80
2019-05-26T04:28:47.824Z,14.80
2019-05-26T04:31:50.761Z,14.90
2019-05-26T04:34:53.780Z,15.00
2019-05-26T04:37:56.715Z,15.10
2019-05-26T04:40:59.721Z,15.20
2019-05-26T04:44:03.095Z,15.10
2019-05-26T04:47:06.023Z,15.20
2019-05-26T04:50:09.354Z,15.10
2019-05-26T04:53:12.299Z,15.00
2019-05-26T04:56:15.211Z,14.80
2019-05-26T04:59:18.137Z,14.80
2019-05-26T05:02:21.321Z,15.10
2019-05-26T05:05:24.275Z,15.00
2019-05-26T05:08:27.482Z,15.00
2019-05-26T05:11:30.776Z,15.20
2019-05-26T05:14:33.720Z,15.00
2019-05-26T05:17:36.635Z,14.90
2019-05-26T05:20:40.273Z,15.10
2019-05-26T05:23:43.504Z,15.10
2019-05-26T05:26:47.238Z,15.20
2019-05-26T05:29:50.179Z,15.30
2019-05-26T05:32:53.941Z,15.50
2019-05-26T05:35:57.195Z,15.50
2019-05-26T05:39:00.516Z,15.60
2019-05-26T05:42:03.536Z,15.70
2019-05-26T05:45:09.158Z,15.70
2019-05-26T05:48:12.177Z,15.60
2019-05-26T05:51:15.172Z,15.70
2019-05-26T05:54:18.815Z,15.70
2019-05-26T05:57:22.140Z,15.90
2019-05-26T06:00:26.171Z,15.80
2019-05-26T06:03:29.084Z,15.90
2019-05-26T06:06:32.435Z,16.00
2019-05-26T06:09:35.355Z,15.90
2019-05-26T06:12:38.625Z,15.90
2019-05-26T06:15:41.547Z,16.00
2019-05-26T06:18:44.461Z,16.00
2019-05-26T06:21:47.741Z,16.00
2019-05-26T06:24:50.969Z,16.10
2019-05-26T06:27:54.201Z,16.10
2019-05-26T06:30:57.478Z,16.00
2019-05-26T06:34:00.390Z,16.10
2019-05-26T06:37:03.700Z,16.10
2019-05-26T06:40:06.948Z,16.10
2019-05-26T06:43:10.260Z,16.00
2019-05-26T06:46:13.188Z,16.10
2019-05-26T06:49:16.108Z,16.20
2019-05-26T06:52:19.044Z,16.30
2019-05-26T06:55:21.966Z,16.30
2019-05-26T06:58:24.908Z,16.20
2019-05-26T07:01:28.287Z,16.30
2019-05-26T07:04:31.199Z,16.40
2019-05-26T07:07:34.143Z,16.50
2019-05-26T07:10:38.468Z,16.50
2019-05-26T07:13:41.787Z,16.50
2019-05-26T07:16:45.065Z,16.60
2019-05-26T07:19:49.538Z,16.60
2019-05-26T07:22:52.483Z,16.70
2019-05-26T07:25:55.788Z,16.70
2019-05-26T07:28:59.116Z,17.00
2019-05-26T07:32:02.242Z,16.90
2019-05-26T07:35:05.511Z,16.60
2019-05-26T07:38:09.071Z,16.70
2019-05-26T07:41:11.971Z,16.90
2019-05-26T07:44:15.607Z,17.00
2019-05-26T07:47:18.631Z,17.10
2019-05-26T07:50:21.928Z,17.20
2019-05-26T07:53:25.160Z,17.30
2019-05-26T07:56:28.423Z,17.40
2019-05-26T07:59:31.676Z,17.50
2019-05-26T08:02:34.936Z,17.70
2019-05-26T08:05:37.852Z,17.70
2019-05-26T08:08:40.993Z,17.90
2019-05-26T08:11:43.958Z,17.80
2019-05-26T08:14:46.914Z,18.10
2019-05-26T08:17:50.185Z,18.30
2019-05-26T08:20:53.461Z,18.40
2019-05-26T08:23:56.681Z,18.20
2019-05-26T08:26:59.944Z,18.30
2019-05-26T08:30:03.994Z,18.40
2019-05-26T08:33:06.988Z,18.50
2019-05-26T08:36:09.932Z,18.60
2019-05-26T08:39:12.868Z,18.60
2019-05-26T08:42:26.787Z,18.60
2019-05-26T08:45:22.747Z,18.70
2019-05-26T08:48:25.925Z,18.60
2019-05-26T08:51:29.135Z,18.70
2019-05-26T08:54:32.087Z,18.70
2019-05-26T08:57:35.099Z,18.90
2019-05-26T09:00:38.052Z,19.00
2019-05-26T09:03:40.960Z,19.10
2019-05-26T09:06:43.886Z,19.10
2019-05-26T09:09:46.820Z,19.00
2019-05-26T09:13:00.432Z,19.00
2019-05-26T09:15:55.748Z,18.80
2019-05-26T09:18:59.035Z,18.60
2019-05-26T09:22:01.960Z,18.60
2019-05-26T09:25:05.411Z,18.60
2019-05-26T09:28:08.331Z,18.50
2019-05-26T09:31:11.568Z,18.50
2019-05-26T09:34:14.572Z,18.50
2019-05-26T09:37:17.604Z,18.60
2019-05-26T09:40:20.709Z,18.60
2019-05-26T09:43:23.661Z,18.60
2019-05-26T09:46:27.071Z,18.70
2019-05-26T09:49:30.260Z,18.60
2019-05-26T09:52:33.200Z,18.60
2019-05-26T09:55:36.118Z,18.70
2019-05-26T09:58:39.048Z,18.80
2019-05-26T10:01:41.994Z,18.70
2019-05-26T10:04:45.304Z,18.70
2019-05-26T10:07:48.625Z,18.60
2019-05-26T10:10:51.553Z,18.60
2019-05-26T10:13:54.811Z,18.60
2019-05-26T10:16:58.214Z,18.60
2019-05-26T10:20:01.136Z,18.50
2019-05-26T10:23:04.532Z,18.50
2019-05-26T10:26:07.483Z,18.60
2019-05-26T10:29:10.457Z,18.60
2019-05-26T10:32:13.739Z,18.70
2019-05-26T10:35:16.672Z,18.70
2019-05-26T10:38:20.038Z,18.80
2019-05-26T10:41:23.272Z,18.80
2019-05-26T10:44:26.194Z,18.70
2019-05-26T10:47:29.544Z,18.70
2019-05-26T10:50:32.437Z,18.70
2019-05-26T10:53:35.704Z,18.80
2019-05-26T10:56:38.733Z,18.80
2019-05-26T10:59:41.684Z,18.90
2019-05-26T11:02:45.524Z,18.90
2019-05-26T11:05:49.097Z,18.90
2019-05-26T11:08:53.087Z,18.90
2019-05-26T11:11:55.999Z,18.90
2019-05-26T11:14:59.306Z,18.90
2019-05-26T11:18:02.285Z,18.90
2019-05-26T11:21:05.188Z,19.00
2019-05-26T11:24:08.119Z,19.10
2019-05-26T11:27:13.280Z,19.10
2019-05-26T11:30:19.138Z,19.10
2019-05-26T11:33:22.127Z,19.10
2019-05-26T11:36:25.095Z,19.20
2019-05-26T11:39:28.032Z,19.20
2019-05-26T11:42:30.979Z,19.30
2019-05-26T11:45:34.252Z,19.30
2019-05-26T11:48:39.277Z,19.30
2019-05-26T11:51:42.446Z,19.40
2019-05-26T11:54:45.375Z,19.40
2019-05-26T11:57:48.318Z,19.50
2019-05-26T12:00:51.228Z,19.70
2019-05-26T12:03:54.164Z,19.80
2019-05-26T12:06:57.444Z,19.80
2019-05-26T12:10:00.724Z,19.90
2019-05-26T12:13:03.714Z,19.90
2019-05-26T12:16:06.923Z,19.80
2019-05-26T12:19:09.901Z,19.80
2019-05-26T12:22:13.936Z,19.70
2019-05-26T12:25:17.056Z,19.70
2019-05-26T12:28:19.982Z,19.60
2019-05-26T12:31:22.927Z,19.60
2019-05-26T12:34:26.474Z,19.50
2019-05-26T12:37:29.487Z,19.60
2019-05-26T12:40:32.429Z,19.70
2019-05-26T12:43:35.372Z,19.80
2019-05-26T12:46:39.281Z,19.80
2019-05-26T12:49:42.237Z,19.80
2019-05-26T12:52:45.173Z,19.90
2019-05-26T12:55:48.103Z,20.10
2019-05-26T12:58:51.458Z,20.20
2019-05-26T13:01:54.660Z,20.30
2019-05-26T13:04:57.589Z,20.50
2019-05-26T13:08:00.515Z,20.70
2019-05-26T13:11:03.488Z,20.80
2019-05-26T13:14:06.805Z,20.90
2019-05-26T13:17:10.080Z,20.80
2019-05-26T13:20:14.640Z,20.70
2019-05-26T13:23:17.556Z,20.60
2019-05-26T13:26:20.553Z,20.50
2019-05-26T13:29:25.887Z,20.30
2019-05-26T13:32:28.312Z,20.20
2019-05-26T13:35:31.239Z,20.20
2019-05-26T13:38:34.299Z,20.20
2019-05-26T13:41:37.795Z,20.20
2019-05-26T13:44:41.084Z,20.30
2019-05-26T13:47:44.357Z,20.30
2019-05-26T13:50:47.307Z,20.20
2019-05-26T13:53:50.572Z,20.20
2019-05-26T13:56:53.945Z,20.30
2019-05-26T13:59:56.868Z,20.30
2019-05-26T14:02:59.804Z,20.40
2019-05-26T14:06:03.923Z,20.50
2019-05-26T14:09:09.373Z,20.50
2019-05-26T14:12:13.054Z,20.70
2019-05-26T14:15:16.105Z,20.90
2019-05-26T14:18:20.038Z,21.20
2019-05-26T14:21:23.330Z,21.40
2019-05-26T14:24:26.613Z,21.10
2019-05-26T14:27:30.649Z,21.00
2019-05-26T14:30:33.902Z,21.20
2019-05-26T14:33:37.172Z,21.20
2019-05-26T14:36:40.400Z,21.20
2019-05-26T14:39:43.323Z,21.00
2019-05-26T14:42:46.564Z,21.10
2019-05-26T14:45:53.409Z,21.10
2019-05-26T14:48:54.324Z,20.90
2019-05-26T14:51:57.597Z,20.90
2019-05-26T14:55:00.785Z,21.00
2019-05-26T14:58:15.097Z,21.00
2019-05-26T15:01:09.641Z,20.80
2019-05-26T15:04:12.589Z,20.70
2019-05-26T15:07:15.504Z,20.60
2019-05-26T15:10:18.468Z,20.60
2019-05-26T15:13:21.380Z,20.60
2019-05-26T15:16:25.571Z,20.50
2019-05-26T15:19:28.786Z,20.50
2019-05-26T15:22:31.739Z,20.40
2019-05-26T15:25:35.144Z,20.40
2019-05-26T15:28:39.492Z,20.40
2019-05-26T15:31:42.919Z,20.40
2019-05-26T15:34:46.314Z,20.40
2019-05-26T15:37:49.584Z,20.40
2019-05-26T15:40:52.519Z,20.40
2019-05-26T15:43:56.403Z,20.40
2019-05-26T15:47:00.035Z,20.40
2019-05-26T15:50:03.983Z,20.40
2019-05-26T15:53:07.479Z,20.40
2019-05-26T15:56:11.105Z,20.30
2019-05-26T15:59:14.014Z,20.20
2019-05-26T16:02:17.604Z,20.20
2019-05-26T16:05:20.559Z,20.10
2019-05-26T16:08:23.874Z,20.10
2019-05-26T16:11:27.151Z,20.10
2019-05-26T16:14:30.578Z,20.20
2019-05-26T16:17:34.273Z,20.20
2019-05-26T16:20:37.306Z,20.20
2019-05-26T16:23:40.671Z,20.10
2019-05-26T16:26:43.597Z,20.10
2019-05-26T16:29:46.858Z,20.20
2019-05-26T16:32:50.286Z,20.10
2019-05-26T16:35:55.551Z,20.10
2019-05-26T16:38:58.732Z,20.10
2019-05-26T16:42:01.696Z,20.10
2019-05-26T16:45:06.166Z,20.00
2019-05-26T16:48:09.100Z,20.10
2019-05-26T16:51:12.405Z,20.00
2019-05-26T16:54:15.348Z,20.00
2019-05-26T16:57:19.178Z,19.90
2019-05-26T17:00:22.105Z,19.90
2019-05-26T17:03:25.333Z,19.90
2019-05-26T17:06:28.259Z,19.90
2019-05-26T17:09:31.950Z,19.90
2019-05-26T17:12:35.000Z,19.90
2019-05-26T17:15:37.914Z,19.90
2019-05-26T17:18:41.295Z,19.80
2019-05-26T17:21:44.672Z,19.80
2019-05-26T17:24:49.136Z,19.90
2019-05-26T17:27:52.476Z,19.90
2019-05-26T17:30:55.412Z,19.80
2019-05-26T17:33:58.353Z,19.90
2019-05-26T17:37:01.289Z,19.80
2019-05-26T17:40:06.160Z,19.80
2019-05-26T17:43:10.258Z,19.70
2019-05-26T17:46:15.301Z,19.70
2019-05-26T17:49:18.377Z,19.70
2019-05-26T17:52:21.321Z,19.70
2019-05-26T17:55:24.871Z,19.70
2019-05-26T17:58:28.541Z,19.70
2019-05-26T18:01:31.559Z,19.80
2019-05-26T18:04:34.591Z,19.70
2019-05-26T18:07:37.874Z,19.80
2019-05-26T18:10:41.134Z,19.80
2019-05-26T18:13:46.672Z,19.80
2019-05-26T18:16:49.388Z,19.70
2019-05-26T18:19:53.049Z,19.70
2019-05-26T18:22:56.276Z,19.70
2019-05-26T18:25:59.748Z,19.70
2019-05-26T18:29:03.376Z,19.80
2019-05-26T18:32:06.578Z,19.70
2019-05-26T18:35:10.300Z,19.70
2019-05-26T18:38:13.728Z,19.70
2019-05-26T18:41:17.413Z,19.70
2019-05-26T18:44:21.203Z,19.80
2019-05-26T18:47:24.893Z,19.70
2019-05-26T18:50:28.013Z,19.80
2019-05-26T18:53:32.343Z,19.80
2019-05-26T18:56:35.700Z,19.70
2019-05-26T18:59:38.915Z,19.70
2019-05-26T19:02:42.165Z,19.80
2019-05-26T19:05:45.473Z,19.70
2019-05-26T19:08:48.757Z,19.70
2019-05-26T19:11:51.703Z,19.70
2019-05-26T19:14:55.226Z,19.60
2019-05-26T19:17:58.368Z,19.50
2019-05-26T19:21:01.961Z,19.50
2019-05-26T19:24:05.279Z,19.50
2019-05-26T19:27:08.316Z,19.50
2019-05-26T19:30:11.840Z,19.60
2019-05-26T19:33:15.191Z,19.50
2019-05-26T19:36:18.821Z,19.40
2019-05-26T19:39:22.160Z,19.40
2019-05-26T19:42:25.532Z,19.40
2019-05-26T19:45:28.588Z,19.30
2019-05-26T19:48:36.718Z,19.20
2019-05-26T19:51:37.500Z,19.20
2019-05-26T19:54:41.487Z,19.20
2019-05-26T19:57:44.767Z,19.20
2019-05-26T20:00:48.261Z,19.20
2019-05-26T20:03:51.340Z,19.20
2019-05-26T20:06:55.364Z,19.10
2019-05-26T20:09:58.920Z,19.00
2019-05-26T20:13:02.248Z,19.10
2019-05-26T20:16:05.934Z,19.00
2019-05-26T20:19:08.873Z,19.00
2019-05-26T20:22:11.903Z,19.00
2019-05-26T20:25:15.505Z,19.00
2019-05-26T20:28:18.482Z,18.90
2019-05-26T20:31:22.136Z,18.90
2019-05-26T20:34:25.318Z,18.90
2019-05-26T20:37:28.244Z,18.90
2019-05-26T20:40:31.623Z,18.80
2019-05-26T20:43:35.035Z,18.80
2019-05-26T20:46:38.512Z,18.70
2019-05-26T20:49:45.178Z,18.70
2019-05-26T20:52:47.605Z,18.70
2019-05-26T20:55:51.096Z,18.70
2019-05-26T20:58:54.016Z,18.70
2019-05-26T21:01:56.946Z,18.60
2019-05-26T21:05:00.484Z,18.60
2019-05-26T21:08:03.805Z,18.60
2019-05-26T21:11:07.374Z,18.70
2019-05-26T21:14:11.034Z,18.60
2019-05-26T21:17:13.972Z,18.60
2019-05-26T21:20:18.572Z,18.70
2019-05-26T21:23:22.815Z,18.80
2019-05-26T21:26:26.409Z,18.70
2019-05-26T21:29:29.779Z,18.60
2019-05-26T21:32:33.300Z,18.60
2019-05-26T21:35:36.519Z,18.40
2019-05-26T21:38:39.881Z,18.50
2019-05-26T21:41:43.521Z,18.50
2019-05-26T21:44:47.094Z,18.50
2019-05-26T21:47:51.037Z,18.60
2019-05-26T21:50:54.248Z,18.60
2019-05-26T21:53:57.181Z,18.60
2019-05-26T21:57:00.232Z,18.60
2019-05-26T22:00:06.630Z,18.70
2019-05-26T22:03:11.767Z,18.80
2019-05-26T22:06:15.271Z,18.70
2019-05-26T22:09:18.261Z,18.70
2019-05-26T22:12:21.602Z,18.70
2019-05-26T22:15:24.971Z,18.60
2019-05-26T22:18:28.176Z,18.30
2019-05-26T22:21:31.081Z,18.30
2019-05-26T22:24:34.395Z,18.40
2019-05-26T22:27:37.336Z,18.40
2019-05-26T22:30:40.288Z,18.30
2019-05-26T22:33:43.859Z,18.20
2019-05-26T22:36:47.163Z,18.10
2019-05-26T22:39:50.094Z,18.00
2019-05-26T22:42:53.321Z,18.10
2019-05-26T22:45:57.271Z,18.00
2019-05-26T22:49:00.238Z,18.10
2019-05-26T22:52:03.542Z,18.10
2019-05-26T22:55:08.358Z,18.00
2019-05-26T22:58:11.341Z,18.00
2019-05-26T23:01:14.592Z,18.00
2019-05-26T23:04:17.838Z,18.00
2019-05-26T23:07:20.867Z,18.00
2019-05-26T23:10:23.775Z,17.90
2019-05-26T23:13:27.460Z,18.00
2019-05-26T23:16:30.408Z,18.00
2019-05-26T23:19:33.320Z,17.80
2019-05-26T23:22:36.641Z,17.70
2019-05-26T23:25:40.767Z,17.70
2019-05-26T23:28:43.949Z,17.70
2019-05-26T23:31:46.887Z,17.80
2019-05-26T23:34:49.807Z,17.90
2019-05-26T23:37:53.583Z,17.90
2019-05-26T23:40:56.931Z,17.80
2019-05-26T23:43:59.835Z,17.80
2019-05-26T23:47:02.780Z,17.80
2019-05-26T23:50:07.263Z,17.70
2019-05-26T23:53:10.202Z,17.70
2019-05-26T23:56:13.148Z,17.60
2019-05-26T23:59:16.404Z,17.60
